sensor_id;sensor_type;location;lat;lon;timestamp;temperature;humidity
3202;DHT22;34843;48.744;8.958;2023-04-10T00:01:03;1.70;99.90
3202;DHT22;34843;48.744;8.958;2023-04-10T00:03:29;1.60;99.90
3202;DHT22;34843;48.744;8.958;2023-04-10T00:05:55;1.60;99.90
3202;DHT22;34843;48.744;8.958;2023-04-10T00:08:22;1.60;99.90
3202;DHT22;34843;48.744;8.958;2023-04-10T00:10:48;1.60;99.90
3202;DHT22;34843;48.744;8.958;2023-04-10T00:13:14;1.60;99.90
3202;DHT22;34843;48.744;8.958;2023-04-10T00:15:40;1.50;99.90
3202;DHT22;34843;48.744;8.958;2023-04-10T00:18:06;1.50;99.90
3202;DHT22;34843;48.744;8.958;2023-04-10T00:20:31;1.50;99.90
3202;DHT22;34843;48.744;8.958;2023-04-10T00:22:57;1.50;99.90
3202;DHT22;34843;48.744;8.958;2023-04-10T00:25:22;1.50;99.90
3202;DHT22;34843;48.744;8.958;2023-04-10T00:27:48;1.40;99.90
3202;DHT22;34843;48.744;8.958;2023-04-10T00:30:13;1.40;99.90
3202;DHT22;34843;48.744;8.958;2023-04-10T00:32:40;1.40;99.90
3202;DHT22;34843;48.744;8.958;2023-04-10T00:35:07;1.40;99.90
3202;DHT22;34843;48.744;8.958;2023-04-10T00:37:32;1.40;99.90
3202;DHT22;34843;48.744;8.958;2023-04-10T00:39:58;1.40;99.90
3202;DHT22;34843;48.744;8.958;2023-04-10T00:42:24;1.50;99.90
3202;DHT22;34843;48.744;8.958;2023-04-10T00:44:49;1.40;99.90
3202;DHT22;34843;48.744;8.958;2023-04-10T00:47:15;1.40;99.90
3202;DHT22;34843;48.744;8.958;2023-04-10T00:49:41;1.40;99.90
3202;DHT22;34843;48.744;8.958;2023-04-10T00:52:08;1.40;99.90
3202;DHT22;34843;48.744;8.958;2023-04-10T00:54:34;1.40;99.90
3202;DHT22;34843;48.744;8.958;2023-04-10T00:57:01;1.40;99.90
3202;DHT22;34843;48.744;8.958;2023-04-10T00:59:27;1.40;99.90
3202;DHT22;34843;48.744;8.958;2023-04-10T01:01:53;1.40;99.90
3202;DHT22;34843;48.744;8.958;2023-04-10T01:04:20;1.40;99.90
3202;DHT22;34843;48.744;8.958;2023-04-10T01:07:17;1.30;99.90
3202;DHT22;34843;48.744;8.958;2023-04-10T01:10:07;1.40;99.90
3202;DHT22;34843;48.744;8.958;2023-04-10T01:15:26;1.20;99.90
3202;DHT22;34843;48.744;8.958;2023-04-10T01:18:03;1.10;99.90
3202;DHT22;34843;48.744;8.958;2023-04-10T01:20:32;1.10;99.90
3202;DHT22;34843;48.744;8.958;2023-04-10T01:23:40;1.10;99.90
3202;DHT22;34843;48.744;8.958;2023-04-10T01:26:10;1.10;99.90
3202;DHT22;34843;48.744;8.958;2023-04-10T01:34:01;1.00;99.90
3202;DHT22;34843;48.744;8.958;2023-04-10T01:36:52;0.90;99.90
3202;DHT22;34843;48.744;8.958;2023-04-10T01:39:21;0.90;99.90
3202;DHT22;34843;48.744;8.958;2023-04-10T01:41:50;0.90;99.90
3202;DHT22;34843;48.744;8.958;2023-04-10T01:44:17;0.80;99.90
3202;DHT22;34843;48.744;8.958;2023-04-10T01:46:47;0.80;99.90
3202;DHT22;34843;48.744;8.958;2023-04-10T01:49:13;0.80;99.90
3202;DHT22;34843;48.744;8.958;2023-04-10T01:51:39;0.80;99.90
3202;DHT22;34843;48.744;8.958;2023-04-10T01:54:05;0.70;99.90
3202;DHT22;34843;48.744;8.958;2023-04-10T01:56:31;0.70;99.90
3202;DHT22;34843;48.744;8.958;2023-04-10T01:58:58;0.60;99.90
3202;DHT22;34843;48.744;8.958;2023-04-10T02:01:24;0.60;99.90
3202;DHT22;34843;48.744;8.958;2023-04-10T02:03:49;0.50;99.90
3202;DHT22;34843;48.744;8.958;2023-04-10T02:09:22;0.40;99.90
3202;DHT22;34843;48.744;8.958;2023-04-10T02:11:54;0.40;99.90
3202;DHT22;34843;48.744;8.958;2023-04-10T02:14:24;0.30;99.90
3202;DHT22;34843;48.744;8.958;2023-04-10T02:16:54;0.20;99.90
3202;DHT22;34843;48.744;8.958;2023-04-10T02:19:22;0.10;99.90
3202;DHT22;34843;48.744;8.958;2023-04-10T02:21:49;0.10;99.90
3202;DHT22;34843;48.744;8.958;2023-04-10T02:24:15;0.10;99.90
3202;DHT22;34843;48.744;8.958;2023-04-10T02:26:50;0.10;99.90
3202;DHT22;34843;48.744;8.958;2023-04-10T02:29:17;0.10;99.90
3202;DHT22;34843;48.744;8.958;2023-04-10T02:31:43;0.10;99.90
3202;DHT22;34843;48.744;8.958;2023-04-10T02:34:09;0.10;99.90
3202;DHT22;34843;48.744;8.958;2023-04-10T02:36:36;0.10;99.90
3202;DHT22;34843;48.744;8.958;2023-04-10T02:39:02;0.00;99.90
3202;DHT22;34843;48.744;8.958;2023-04-10T02:41:28;0.10;99.90
3202;DHT22;34843;48.744;8.958;2023-04-10T02:43:54;0.10;99.90
3202;DHT22;34843;48.744;8.958;2023-04-10T02:46:19;0.00;99.90
3202;DHT22;34843;48.744;8.958;2023-04-10T02:48:45;0.00;99.90
3202;DHT22;34843;48.744;8.958;2023-04-10T02:51:10;0.00;99.90
3202;DHT22;34843;48.744;8.958;2023-04-10T02:53:36;0.00;99.90
3202;DHT22;34843;48.744;8.958;2023-04-10T02:56:01;0.00;99.90
3202;DHT22;34843;48.744;8.958;2023-04-10T02:58:27;0.00;99.90
3202;DHT22;34843;48.744;8.958;2023-04-10T03:00:54;0.00;99.90
3202;DHT22;34843;48.744;8.958;2023-04-10T03:03:20;0.00;99.90
3202;DHT22;34843;48.744;8.958;2023-04-10T03:05:46;0.10;99.90
3202;DHT22;34843;48.744;8.958;2023-04-10T03:08:14;0.10;99.90
3202;DHT22;34843;48.744;8.958;2023-04-10T03:10:40;0.10;99.90
3202;DHT22;34843;48.744;8.958;2023-04-10T03:13:07;0.10;99.90
3202;DHT22;34843;48.744;8.958;2023-04-10T03:15:33;0.10;99.90
3202;DHT22;34843;48.744;8.958;2023-04-10T03:17:58;0.10;99.90
3202;DHT22;34843;48.744;8.958;2023-04-10T03:20:24;0.10;99.90
3202;DHT22;34843;48.744;8.958;2023-04-10T03:22:49;0.10;99.90
3202;DHT22;34843;48.744;8.958;2023-04-10T03:25:15;0.00;99.90
3202;DHT22;34843;48.744;8.958;2023-04-10T03:27:40;0.00;99.90
3202;DHT22;34843;48.744;8.958;2023-04-10T03:30:08;-0.10;99.90
3202;DHT22;34843;48.744;8.958;2023-04-10T03:32:34;-0.10;99.90
3202;DHT22;34843;48.744;8.958;2023-04-10T03:34:59;-0.20;99.90
3202;DHT22;34843;48.744;8.958;2023-04-10T03:37:25;-0.20;99.90
3202;DHT22;34843;48.744;8.958;2023-04-10T03:39:53;-0.20;99.90
3202;DHT22;34843;48.744;8.958;2023-04-10T03:42:19;-0.30;99.90
3202;DHT22;34843;48.744;8.958;2023-04-10T03:44:45;-0.30;99.90
3202;DHT22;34843;48.744;8.958;2023-04-10T03:47:10;-0.20;99.90
3202;DHT22;34843;48.744;8.958;2023-04-10T03:49:36;-0.30;99.90
3202;DHT22;34843;48.744;8.958;2023-04-10T03:52:01;-0.20;99.90
3202;DHT22;34843;48.744;8.958;2023-04-10T03:54:27;-0.20;99.90
3202;DHT22;34843;48.744;8.958;2023-04-10T03:56:52;-0.20;99.90
3202;DHT22;34843;48.744;8.958;2023-04-10T03:59:18;-0.20;99.90
3202;DHT22;34843;48.744;8.958;2023-04-10T04:01:43;-0.20;99.90
3202;DHT22;34843;48.744;8.958;2023-04-10T04:04:09;-0.20;99.90
3202;DHT22;34843;48.744;8.958;2023-04-10T04:06:34;-0.20;99.90
3202;DHT22;34843;48.744;8.958;2023-04-10T04:09:00;-0.20;99.90
3202;DHT22;34843;48.744;8.958;2023-04-10T04:11:25;-0.20;99.90
3202;DHT22;34843;48.744;8.958;2023-04-10T04:13:52;-0.10;99.90
3202;DHT22;34843;48.744;8.958;2023-04-10T04:16:17;-0.10;99.90
3202;DHT22;34843;48.744;8.958;2023-04-10T04:18:43;-0.10;99.90
3202;DHT22;34843;48.744;8.958;2023-04-10T04:21:08;-0.10;99.90
3202;DHT22;34843;48.744;8.958;2023-04-10T04:23:34;-0.20;99.90
3202;DHT22;34843;48.744;8.958;2023-04-10T04:25:59;-0.10;99.90
3202;DHT22;34843;48.744;8.958;2023-04-10T04:28:25;-0.20;99.90
3202;DHT22;34843;48.744;8.958;2023-04-10T04:30:50;-0.20;99.90
3202;DHT22;34843;48.744;8.958;2023-04-10T04:33:16;-0.20;99.90
3202;DHT22;34843;48.744;8.958;2023-04-10T04:35:41;-0.20;99.90
3202;DHT22;34843;48.744;8.958;2023-04-10T04:38:07;-0.20;99.90
3202;DHT22;34843;48.744;8.958;2023-04-10T04:40:32;-0.20;99.90
3202;DHT22;34843;48.744;8.958;2023-04-10T04:42:58;-0.10;99.90
3202;DHT22;34843;48.744;8.958;2023-04-10T04:45:23;-0.10;99.90
3202;DHT22;34843;48.744;8.958;2023-04-10T04:47:49;-0.10;99.90
3202;DHT22;34843;48.744;8.958;2023-04-10T04:50:15;0.00;99.90
3202;DHT22;34843;48.744;8.958;2023-04-10T04:52:41;0.10;99.90
3202;DHT22;34843;48.744;8.958;2023-04-10T04:55:07;0.10;99.90
3202;DHT22;34843;48.744;8.958;2023-04-10T04:57:33;0.10;99.90
3202;DHT22;34843;48.744;8.958;2023-04-10T04:59:58;0.20;99.90
3202;DHT22;34843;48.744;8.958;2023-04-10T05:02:23;0.40;99.90
3202;DHT22;34843;48.744;8.958;2023-04-10T05:04:49;0.40;99.90
3202;DHT22;34843;48.744;8.958;2023-04-10T05:07:15;0.50;99.90
3202;DHT22;34843;48.744;8.958;2023-04-10T05:09:41;0.60;99.90
3202;DHT22;34843;48.744;8.958;2023-04-10T05:12:06;0.70;99.90
3202;DHT22;34843;48.744;8.958;2023-04-10T05:14:32;0.80;99.90
3202;DHT22;34843;48.744;8.958;2023-04-10T05:16:57;1.10;99.90
3202;DHT22;34843;48.744;8.958;2023-04-10T05:19:23;1.70;99.90
3202;DHT22;34843;48.744;8.958;2023-04-10T05:21:48;2.30;99.90
3202;DHT22;34843;48.744;8.958;2023-04-10T05:24:14;3.00;99.90
3202;DHT22;34843;48.744;8.958;2023-04-10T05:26:39;3.50;99.90
3202;DHT22;34843;48.744;8.958;2023-04-10T05:29:06;4.20;99.90
3202;DHT22;34843;48.744;8.958;2023-04-10T05:31:32;4.90;99.90
3202;DHT22;34843;48.744;8.958;2023-04-10T05:33:58;5.50;99.90
3202;DHT22;34843;48.744;8.958;2023-04-10T05:36:23;6.10;99.90
3202;DHT22;34843;48.744;8.958;2023-04-10T05:38:49;6.50;99.90
3202;DHT22;34843;48.744;8.958;2023-04-10T05:41:14;6.70;99.90
3202;DHT22;34843;48.744;8.958;2023-04-10T05:43:40;6.90;99.90
3202;DHT22;34843;48.744;8.958;2023-04-10T05:46:06;7.10;99.90
3202;DHT22;34843;48.744;8.958;2023-04-10T05:48:31;7.50;99.90
3202;DHT22;34843;48.744;8.958;2023-04-10T05:50:57;7.80;99.90
3202;DHT22;34843;48.744;8.958;2023-04-10T05:53:27;8.10;99.90
3202;DHT22;34843;48.744;8.958;2023-04-10T05:55:55;8.40;99.90
3202;DHT22;34843;48.744;8.958;2023-04-10T05:58:21;8.50;99.90
3202;DHT22;34843;48.744;8.958;2023-04-10T06:00:46;8.60;99.90
3202;DHT22;34843;48.744;8.958;2023-04-10T06:03:12;8.60;99.90
3202;DHT22;34843;48.744;8.958;2023-04-10T06:05:38;8.40;99.90
3202;DHT22;34843;48.744;8.958;2023-04-10T06:08:03;8.20;99.90
3202;DHT22;34843;48.744;8.958;2023-04-10T06:10:29;8.10;99.90
3202;DHT22;34843;48.744;8.958;2023-04-10T06:12:55;8.10;99.90
3202;DHT22;34843;48.744;8.958;2023-04-10T06:15:21;8.20;99.90
3202;DHT22;34843;48.744;8.958;2023-04-10T06:17:46;8.10;99.90
3202;DHT22;34843;48.744;8.958;2023-04-10T06:20:12;8.00;99.90
3202;DHT22;34843;48.744;8.958;2023-04-10T06:22:37;7.90;99.90
3202;DHT22;34843;48.744;8.958;2023-04-10T06:25:03;7.90;99.90
3202;DHT22;34843;48.744;8.958;2023-04-10T06:27:30;7.90;99.90
3202;DHT22;34843;48.744;8.958;2023-04-10T06:29:55;8.50;99.90
3202;DHT22;34843;48.744;8.958;2023-04-10T06:32:21;9.30;99.90
3202;DHT22;34843;48.744;8.958;2023-04-10T06:34:47;10.30;99.90
3202;DHT22;34843;48.744;8.958;2023-04-10T06:37:12;11.40;99.90
3202;DHT22;34843;48.744;8.958;2023-04-10T06:39:38;12.50;99.90
3202;DHT22;34843;48.744;8.958;2023-04-10T06:42:03;13.50;99.90
3202;DHT22;34843;48.744;8.958;2023-04-10T06:44:29;14.30;99.90
3202;DHT22;34843;48.744;8.958;2023-04-10T06:46:55;15.00;99.90
3202;DHT22;34843;48.744;8.958;2023-04-10T06:49:20;15.70;99.90
3202;DHT22;34843;48.744;8.958;2023-04-10T06:51:46;16.70;99.90
3202;DHT22;34843;48.744;8.958;2023-04-10T06:54:12;17.80;99.90
3202;DHT22;34843;48.744;8.958;2023-04-10T06:56:38;18.50;99.90
3202;DHT22;34843;48.744;8.958;2023-04-10T06:59:04;18.40;99.90
3202;DHT22;34843;48.744;8.958;2023-04-10T07:01:29;18.80;99.90
3202;DHT22;34843;48.744;8.958;2023-04-10T07:03:55;19.20;99.90
3202;DHT22;34843;48.744;8.958;2023-04-10T07:06:20;19.90;99.90
3202;DHT22;34843;48.744;8.958;2023-04-10T07:08:48;20.80;99.90
3202;DHT22;34843;48.744;8.958;2023-04-10T07:11:13;20.00;99.90
3202;DHT22;34843;48.744;8.958;2023-04-10T07:13:39;18.80;99.90
3202;DHT22;34843;48.744;8.958;2023-04-10T07:16:05;17.80;99.90
3202;DHT22;34843;48.744;8.958;2023-04-10T07:18:32;17.60;99.90
3202;DHT22;34843;48.744;8.958;2023-04-10T07:20:59;17.70;99.90
3202;DHT22;34843;48.744;8.958;2023-04-10T07:23:25;19.50;99.90
3202;DHT22;34843;48.744;8.958;2023-04-10T07:25:51;19.20;99.90
3202;DHT22;34843;48.744;8.958;2023-04-10T07:28:17;19.40;99.90
3202;DHT22;34843;48.744;8.958;2023-04-10T07:30:43;19.00;99.60
3202;DHT22;34843;48.744;8.958;2023-04-10T07:33:08;19.30;99.90
3202;DHT22;34843;48.744;8.958;2023-04-10T07:35:34;20.30;99.20
3202;DHT22;34843;48.744;8.958;2023-04-10T07:38:00;20.30;97.60
3202;DHT22;34843;48.744;8.958;2023-04-10T07:40:26;19.90;97.10
3202;DHT22;34843;48.744;8.958;2023-04-10T07:42:51;19.50;97.30
3202;DHT22;34843;48.744;8.958;2023-04-10T07:45:17;19.20;96.90
3202;DHT22;34843;48.744;8.958;2023-04-10T07:47:42;18.40;96.80
3202;DHT22;34843;48.744;8.958;2023-04-10T07:50:08;16.70;98.00
3202;DHT22;34843;48.744;8.958;2023-04-10T07:52:34;15.50;99.90
3202;DHT22;34843;48.744;8.958;2023-04-10T07:55:02;15.00;99.90
3202;DHT22;34843;48.744;8.958;2023-04-10T07:57:28;14.50;99.90
3202;DHT22;34843;48.744;8.958;2023-04-10T07:59:54;14.10;99.90
3202;DHT22;34843;48.744;8.958;2023-04-10T08:02:20;13.70;99.90
3202;DHT22;34843;48.744;8.958;2023-04-10T08:04:45;13.30;99.90
3202;DHT22;34843;48.744;8.958;2023-04-10T08:07:11;12.70;99.90
3202;DHT22;34843;48.744;8.958;2023-04-10T08:09:36;12.30;99.90
3202;DHT22;34843;48.744;8.958;2023-04-10T08:12:02;12.20;99.90
3202;DHT22;34843;48.744;8.958;2023-04-10T08:14:28;12.00;99.90
3202;DHT22;34843;48.744;8.958;2023-04-10T08:16:53;12.00;99.90
3202;DHT22;34843;48.744;8.958;2023-04-10T08:19:19;11.80;99.90
3202;DHT22;34843;48.744;8.958;2023-04-10T08:21:44;11.70;99.90
3202;DHT22;34843;48.744;8.958;2023-04-10T08:24:10;11.80;99.90
3202;DHT22;34843;48.744;8.958;2023-04-10T08:26:35;12.00;99.90
3202;DHT22;34843;48.744;8.958;2023-04-10T08:29:01;12.10;99.90
3202;DHT22;34843;48.744;8.958;2023-04-10T08:31:27;12.10;99.90
3202;DHT22;34843;48.744;8.958;2023-04-10T08:33:53;12.00;99.90
3202;DHT22;34843;48.744;8.958;2023-04-10T08:36:19;11.90;99.90
3202;DHT22;34843;48.744;8.958;2023-04-10T08:38:45;12.20;99.90
3202;DHT22;34843;48.744;8.958;2023-04-10T08:41:13;12.40;99.90
3202;DHT22;34843;48.744;8.958;2023-04-10T08:43:38;12.50;99.90
3202;DHT22;34843;48.744;8.958;2023-04-10T08:46:04;12.50;99.90
3202;DHT22;34843;48.744;8.958;2023-04-10T08:48:46;12.30;99.90
3202;DHT22;34843;48.744;8.958;2023-04-10T08:51:20;12.40;99.90
3202;DHT22;34843;48.744;8.958;2023-04-10T08:53:50;12.50;99.90
3202;DHT22;34843;48.744;8.958;2023-04-10T08:56:16;12.40;99.90
3202;DHT22;34843;48.744;8.958;2023-04-10T08:58:42;12.30;99.90
3202;DHT22;34843;48.744;8.958;2023-04-10T09:01:09;12.50;99.90
3202;DHT22;34843;48.744;8.958;2023-04-10T09:03:37;12.70;99.90
3202;DHT22;34843;48.744;8.958;2023-04-10T09:06:03;13.00;99.90
3202;DHT22;34843;48.744;8.958;2023-04-10T09:08:30;13.20;99.90
3202;DHT22;34843;48.744;8.958;2023-04-10T09:10:55;13.40;99.90
3202;DHT22;34843;48.744;8.958;2023-04-10T09:13:41;13.30;99.90
3202;DHT22;34843;48.744;8.958;2023-04-10T09:16:08;13.10;99.90
3202;DHT22;34843;48.744;8.958;2023-04-10T09:18:50;13.00;99.90
3202;DHT22;34843;48.744;8.958;2023-04-10T09:21:20;13.00;99.90
3202;DHT22;34843;48.744;8.958;2023-04-10T09:23:47;13.00;99.90
3202;DHT22;34843;48.744;8.958;2023-04-10T09:26:29;13.20;99.90
3202;DHT22;34843;48.744;8.958;2023-04-10T09:28:57;13.40;99.90
3202;DHT22;34843;48.744;8.958;2023-04-10T09:31:49;13.50;99.90
3202;DHT22;34843;48.744;8.958;2023-04-10T09:34:18;13.50;99.90
3202;DHT22;34843;48.744;8.958;2023-04-10T09:39:20;13.60;99.90
3202;DHT22;34843;48.744;8.958;2023-04-10T09:41:53;13.70;99.90
3202;DHT22;34843;48.744;8.958;2023-04-10T09:44:32;13.80;99.90
3202;DHT22;34843;48.744;8.958;2023-04-10T09:47:14;14.10;99.90
3202;DHT22;34843;48.744;8.958;2023-04-10T09:49:47;14.30;99.90
3202;DHT22;34843;48.744;8.958;2023-04-10T09:52:27;14.30;99.60
3202;DHT22;34843;48.744;8.958;2023-04-10T09:54:58;14.40;99.60
3202;DHT22;34843;48.744;8.958;2023-04-10T09:57:26;14.50;99.90
3202;DHT22;34843;48.744;8.958;2023-04-10T09:59:53;14.60;98.90
3202;DHT22;34843;48.744;8.958;2023-04-10T10:02:21;14.70;99.90
3202;DHT22;34843;48.744;8.958;2023-04-10T10:04:48;14.80;99.90
3202;DHT22;34843;48.744;8.958;2023-04-10T10:07:19;14.90;99.40
3202;DHT22;34843;48.744;8.958;2023-04-10T10:09:47;14.80;98.60
3202;DHT22;34843;48.744;8.958;2023-04-10T10:12:16;14.80;98.60
3202;DHT22;34843;48.744;8.958;2023-04-10T10:15:05;14.90;98.90
3202;DHT22;34843;48.744;8.958;2023-04-10T10:17:37;14.90;98.70
3202;DHT22;34843;48.744;8.958;2023-04-10T10:20:07;14.90;99.90
3202;DHT22;34843;48.744;8.958;2023-04-10T10:22:34;15.20;98.30
3202;DHT22;34843;48.744;8.958;2023-04-10T10:25:01;15.30;99.50
3202;DHT22;34843;48.744;8.958;2023-04-10T10:27:30;15.50;99.90
3202;DHT22;34843;48.744;8.958;2023-04-10T10:29:58;15.80;98.50
3202;DHT22;34843;48.744;8.958;2023-04-10T10:32:25;15.80;97.60
3202;DHT22;34843;48.744;8.958;2023-04-10T10:34:52;15.80;97.20
3202;DHT22;34843;48.744;8.958;2023-04-10T10:37:21;15.90;97.60
3202;DHT22;34843;48.744;8.958;2023-04-10T10:39:56;16.10;96.30
3202;DHT22;34843;48.744;8.958;2023-04-10T10:45:16;15.90;95.50
3202;DHT22;34843;48.744;8.958;2023-04-10T10:47:49;16.00;95.70
3202;DHT22;34843;48.744;8.958;2023-04-10T10:50:15;16.20;95.50
3202;DHT22;34843;48.744;8.958;2023-04-10T10:58:02;16.50;93.90
3202;DHT22;34843;48.744;8.958;2023-04-10T11:05:52;16.40;93.70
3202;DHT22;34843;48.744;8.958;2023-04-10T11:08:41;16.60;92.70
3202;DHT22;34843;48.744;8.958;2023-04-10T11:11:24;16.60;93.60
3202;DHT22;34843;48.744;8.958;2023-04-10T11:16:42;16.80;91.50
3202;DHT22;34843;48.744;8.958;2023-04-10T11:19:10;17.00;93.00
3202;DHT22;34843;48.744;8.958;2023-04-10T11:22:01;17.20;92.50
3202;DHT22;34843;48.744;8.958;2023-04-10T11:24:29;17.30;92.10
3202;DHT22;34843;48.744;8.958;2023-04-10T11:26:54;17.40;91.40
3202;DHT22;34843;48.744;8.958;2023-04-10T11:31:59;17.50;89.80
3202;DHT22;34843;48.744;8.958;2023-04-10T11:34:25;17.30;87.20
3202;DHT22;34843;48.744;8.958;2023-04-10T11:36:59;17.10;89.10
3202;DHT22;34843;48.744;8.958;2023-04-10T11:39:27;17.20;88.40
3202;DHT22;34843;48.744;8.958;2023-04-10T11:41:53;17.30;89.60
3202;DHT22;34843;48.744;8.958;2023-04-10T11:44:27;17.40;88.80
3202;DHT22;34843;48.744;8.958;2023-04-10T11:46:54;17.50;88.60
3202;DHT22;34843;48.744;8.958;2023-04-10T11:49:24;17.50;88.30
3202;DHT22;34843;48.744;8.958;2023-04-10T11:51:51;17.50;89.60
3202;DHT22;34843;48.744;8.958;2023-04-10T11:54:27;17.60;88.10
3202;DHT22;34843;48.744;8.958;2023-04-10T11:59:25;17.50;81.30
3202;DHT22;34843;48.744;8.958;2023-04-10T12:01:52;17.60;83.60
3202;DHT22;34843;48.744;8.958;2023-04-10T12:04:22;17.70;86.00
3202;DHT22;34843;48.744;8.958;2023-04-10T12:06:54;18.00;85.90
3202;DHT22;34843;48.744;8.958;2023-04-10T12:09:20;18.10;84.80
3202;DHT22;34843;48.744;8.958;2023-04-10T12:11:58;18.40;84.30
3202;DHT22;34843;48.744;8.958;2023-04-10T12:17:00;18.60;79.30
3202;DHT22;34843;48.744;8.958;2023-04-10T12:19:26;18.50;80.30
3202;DHT22;34843;48.744;8.958;2023-04-10T12:21:52;18.40;75.00
3202;DHT22;34843;48.744;8.958;2023-04-10T12:24:46;18.20;75.10
3202;DHT22;34843;48.744;8.958;2023-04-10T12:27:24;18.00;75.30
3202;DHT22;34843;48.744;8.958;2023-04-10T12:29:52;18.10;80.70
3202;DHT22;34843;48.744;8.958;2023-04-10T12:32:19;18.50;82.60
3202;DHT22;34843;48.744;8.958;2023-04-10T12:34:52;18.70;77.70
3202;DHT22;34843;48.744;8.958;2023-04-10T12:37:19;19.00;77.50
3202;DHT22;34843;48.744;8.958;2023-04-10T12:39:45;19.30;78.50
3202;DHT22;34843;48.744;8.958;2023-04-10T12:42:12;19.50;77.60
3202;DHT22;34843;48.744;8.958;2023-04-10T12:45:00;19.50;73.00
3202;DHT22;34843;48.744;8.958;2023-04-10T12:47:27;19.10;71.50
3202;DHT22;34843;48.744;8.958;2023-04-10T12:52:32;19.20;70.90
3202;DHT22;34843;48.744;8.958;2023-04-10T12:57:37;19.70;76.80
3202;DHT22;34843;48.744;8.958;2023-04-10T13:00:07;19.90;74.90
3202;DHT22;34843;48.744;8.958;2023-04-10T13:02:40;20.30;78.50
3202;DHT22;34843;48.744;8.958;2023-04-10T13:05:06;20.70;75.80
3202;DHT22;34843;48.744;8.958;2023-04-10T13:07:32;21.10;76.90
3202;DHT22;34843;48.744;8.958;2023-04-10T13:09:58;21.40;76.50
3202;DHT22;34843;48.744;8.958;2023-04-10T13:12:24;21.60;75.90
3202;DHT22;34843;48.744;8.958;2023-04-10T13:14:51;21.70;72.40
3202;DHT22;34843;48.744;8.958;2023-04-10T13:17:20;21.80;69.40
3202;DHT22;34843;48.744;8.958;2023-04-10T13:19:46;22.00;74.20
3202;DHT22;34843;48.744;8.958;2023-04-10T13:22:12;22.20;75.00
3202;DHT22;34843;48.744;8.958;2023-04-10T13:24:37;22.40;75.40
3202;DHT22;34843;48.744;8.958;2023-04-10T13:27:03;22.50;74.60
3202;DHT22;34843;48.744;8.958;2023-04-10T13:29:29;22.50;69.70
3202;DHT22;34843;48.744;8.958;2023-04-10T13:31:54;22.40;70.40
3202;DHT22;34843;48.744;8.958;2023-04-10T13:34:20;22.20;69.70
3202;DHT22;34843;48.744;8.958;2023-04-10T13:36:45;22.10;72.10
3202;DHT22;34843;48.744;8.958;2023-04-10T13:39:11;21.90;68.60
3202;DHT22;34843;48.744;8.958;2023-04-10T13:41:36;21.70;70.50
3202;DHT22;34843;48.744;8.958;2023-04-10T13:44:02;21.70;72.60
3202;DHT22;34843;48.744;8.958;2023-04-10T13:46:28;21.60;71.20
3202;DHT22;34843;48.744;8.958;2023-04-10T13:48:53;21.50;71.00
3202;DHT22;34843;48.744;8.958;2023-04-10T13:51:19;21.50;71.20
3202;DHT22;34843;48.744;8.958;2023-04-10T13:53:44;21.50;71.10
3202;DHT22;34843;48.744;8.958;2023-04-10T13:56:10;21.50;71.30
3202;DHT22;34843;48.744;8.958;2023-04-10T13:58:35;21.50;72.10
3202;DHT22;34843;48.744;8.958;2023-04-10T14:01:01;21.60;70.90
3202;DHT22;34843;48.744;8.958;2023-04-10T14:03:27;21.70;70.40
3202;DHT22;34843;48.744;8.958;2023-04-10T14:05:53;21.90;70.20
3202;DHT22;34843;48.744;8.958;2023-04-10T14:08:18;21.70;68.20
3202;DHT22;34843;48.744;8.958;2023-04-10T14:10:45;21.60;68.60
3202;DHT22;34843;48.744;8.958;2023-04-10T14:13:15;21.60;67.00
3202;DHT22;34843;48.744;8.958;2023-04-10T14:15:42;21.70;68.20
3202;DHT22;34843;48.744;8.958;2023-04-10T14:18:08;21.80;69.70
3202;DHT22;34843;48.744;8.958;2023-04-10T14:20:33;22.00;68.60
3202;DHT22;34843;48.744;8.958;2023-04-10T14:22:59;21.60;66.40
3202;DHT22;34843;48.744;8.958;2023-04-10T14:25:25;21.60;68.30
3202;DHT22;34843;48.744;8.958;2023-04-10T14:27:50;21.50;68.50
3202;DHT22;34843;48.744;8.958;2023-04-10T14:30:16;21.60;69.40
3202;DHT22;34843;48.744;8.958;2023-04-10T14:32:42;21.50;67.00
3202;DHT22;34843;48.744;8.958;2023-04-10T14:35:08;21.60;68.20
3202;DHT22;34843;48.744;8.958;2023-04-10T14:37:34;21.60;66.80
3202;DHT22;34843;48.744;8.958;2023-04-10T14:40:00;21.70;68.90
3202;DHT22;34843;48.744;8.958;2023-04-10T14:42:26;21.80;67.80
3202;DHT22;34843;48.744;8.958;2023-04-10T14:44:52;21.70;66.50
3202;DHT22;34843;48.744;8.958;2023-04-10T14:47:17;21.60;67.50
3202;DHT22;34843;48.744;8.958;2023-04-10T14:49:43;21.50;66.00
3202;DHT22;34843;48.744;8.958;2023-04-10T14:52:08;21.50;66.90
3202;DHT22;34843;48.744;8.958;2023-04-10T14:54:34;21.20;65.90
3202;DHT22;34843;48.744;8.958;2023-04-10T14:56:59;21.00;64.90
3202;DHT22;34843;48.744;8.958;2023-04-10T14:59:26;20.70;65.90
3202;DHT22;34843;48.744;8.958;2023-04-10T15:01:52;20.10;65.00
3202;DHT22;34843;48.744;8.958;2023-04-10T15:04:18;20.10;67.90
3202;DHT22;34843;48.744;8.958;2023-04-10T15:06:44;20.00;66.70
3202;DHT22;34843;48.744;8.958;2023-04-10T15:09:09;20.10;68.70
3202;DHT22;34843;48.744;8.958;2023-04-10T15:11:35;20.10;68.50
3202;DHT22;34843;48.744;8.958;2023-04-10T15:14:00;20.10;65.40
3202;DHT22;34843;48.744;8.958;2023-04-10T15:16:27;19.70;65.60
3202;DHT22;34843;48.744;8.958;2023-04-10T15:18:52;19.70;68.10
3202;DHT22;34843;48.744;8.958;2023-04-10T15:21:18;19.70;68.70
3202;DHT22;34843;48.744;8.958;2023-04-10T15:23:43;19.60;66.80
3202;DHT22;34843;48.744;8.958;2023-04-10T15:26:13;19.60;68.00
3202;DHT22;34843;48.744;8.958;2023-04-10T15:28:40;19.60;69.40
3202;DHT22;34843;48.744;8.958;2023-04-10T15:31:06;19.50;70.50
3202;DHT22;34843;48.744;8.958;2023-04-10T15:33:31;19.60;71.20
3202;DHT22;34843;48.744;8.958;2023-04-10T15:35:57;19.50;71.10
3202;DHT22;34843;48.744;8.958;2023-04-10T15:38:23;19.40;71.60
3202;DHT22;34843;48.744;8.958;2023-04-10T15:40:53;19.20;72.40
3202;DHT22;34843;48.744;8.958;2023-04-10T15:43:18;19.20;70.90
3202;DHT22;34843;48.744;8.958;2023-04-10T15:45:44;19.20;68.10
3202;DHT22;34843;48.744;8.958;2023-04-10T15:48:10;19.10;67.90
3202;DHT22;34843;48.744;8.958;2023-04-10T15:50:36;19.10;69.00
3202;DHT22;34843;48.744;8.958;2023-04-10T15:53:02;19.10;70.30
3202;DHT22;34843;48.744;8.958;2023-04-10T15:55:27;19.10;71.50
3202;DHT22;34843;48.744;8.958;2023-04-10T15:57:53;19.20;71.80
3202;DHT22;34843;48.744;8.958;2023-04-10T16:00:18;19.10;69.10
3202;DHT22;34843;48.744;8.958;2023-04-10T16:02:45;19.10;68.90
3202;DHT22;34843;48.744;8.958;2023-04-10T16:05:10;19.10;69.10
3202;DHT22;34843;48.744;8.958;2023-04-10T16:07:36;19.20;69.10
3202;DHT22;34843;48.744;8.958;2023-04-10T16:10:04;19.20;70.00
3202;DHT22;34843;48.744;8.958;2023-04-10T16:12:30;19.10;71.50
3202;DHT22;34843;48.744;8.958;2023-04-10T16:14:56;19.10;72.20
3202;DHT22;34843;48.744;8.958;2023-04-10T16:17:21;19.10;74.00
3202;DHT22;34843;48.744;8.958;2023-04-10T16:19:47;19.00;74.50
3202;DHT22;34843;48.744;8.958;2023-04-10T16:22:12;18.90;74.20
3202;DHT22;34843;48.744;8.958;2023-04-10T16:24:38;18.90;74.20
3202;DHT22;34843;48.744;8.958;2023-04-10T16:27:03;18.70;73.80
3202;DHT22;34843;48.744;8.958;2023-04-10T16:29:29;18.70;74.80
3202;DHT22;34843;48.744;8.958;2023-04-10T16:31:54;18.60;75.60
3202;DHT22;34843;48.744;8.958;2023-04-10T16:34:20;18.60;75.50